createdAt,value
2023-04-27T00:00:57.300Z,97613.19
2023-04-27T00:03:06.717Z,97613.19
2023-04-27T00:05:15.283Z,97608.91
2023-04-27T00:07:24.876Z,97605.75
2023-04-27T00:09:35.452Z,97603.09
2023-04-27T00:11:43.447Z,97610.97
2023-04-27T00:13:51.358Z,97607.78
2023-04-27T00:16:01.189Z,97605.31
2023-04-27T00:18:09.146Z,97603.53
2023-04-27T00:20:17.052Z,97601.91
2023-04-27T00:22:25.027Z,97596.72
2023-04-27T00:24:36.275Z,97600.97
2023-04-27T00:26:44.512Z,97601.41
2023-04-27T00:28:53.098Z,97600.03
2023-04-27T00:31:03.699Z,97598.94
2023-04-27T00:33:12.207Z,97592.38
2023-04-27T00:35:22.119Z,97589.28
2023-04-27T00:37:30.545Z,97590.75
2023-04-27T00:39:41.220Z,97586.75
2023-04-27T00:41:49.088Z,97595.94
2023-04-27T00:43:57.030Z,97586.53
2023-04-27T00:46:05.492Z,97581.50
2023-04-27T00:48:13.802Z,97586.13
2023-04-27T00:50:30.528Z,97579.19
2023-04-27T00:52:39.541Z,97586.47
2023-04-27T00:54:53.431Z,97579.97
2023-04-27T00:57:04.245Z,97577.50
2023-04-27T00:59:12.385Z,97581.19
2023-04-27T01:01:20.920Z,97580.06
2023-04-27T01:03:29.679Z,97579.31
2023-04-27T01:05:40.346Z,97577.84
2023-04-27T01:07:49.604Z,97577.50
2023-04-27T01:10:00.532Z,97575.78
2023-04-27T01:12:09.334Z,97578.94
2023-04-27T01:14:17.789Z,97583.84
2023-04-27T01:16:25.869Z,97584.16
2023-04-27T01:18:33.910Z,97584.94
2023-04-27T01:20:42.556Z,97581.00
2023-04-27T01:22:50.938Z,97583.75
2023-04-27T01:25:01.761Z,97585.34
2023-04-27T01:27:12.899Z,97585.63
2023-04-27T01:29:21.572Z,97586.75
2023-04-27T01:31:29.475Z,97586.38
2023-04-27T01:33:37.385Z,97582.78
2023-04-27T01:35:45.650Z,97591.22
2023-04-27T01:37:54.254Z,97588.16
2023-04-27T01:40:06.043Z,97586.34
2023-04-27T01:42:13.976Z,97572.34
2023-04-27T01:44:23.175Z,97573.03
2023-04-27T01:46:31.211Z,97575.53
2023-04-27T01:48:39.306Z,97577.97
2023-04-27T01:50:47.355Z,97574.97
2023-04-27T01:52:55.428Z,97582.41
2023-04-27T01:55:06.541Z,97583.47
2023-04-27T01:57:14.763Z,97583.72
2023-04-27T01:59:22.954Z,97586.75
2023-04-27T02:01:31.607Z,97589.56
2023-04-27T02:03:39.708Z,97583.59
2023-04-27T02:05:48.283Z,97588.72
2023-04-27T02:07:56.551Z,97590.75
2023-04-27T02:10:07.737Z,97580.75
2023-04-27T02:12:15.865Z,97590.25
2023-04-27T02:14:23.750Z,97587.03
2023-04-27T02:16:31.731Z,97586.94
2023-04-27T02:18:39.708Z,97591.38
2023-04-27T02:20:50.753Z,97592.84
2023-04-27T02:22:58.677Z,97598.41
2023-04-27T02:25:11.779Z,97595.44
2023-04-27T02:27:20.125Z,97603.53
2023-04-27T02:29:33.209Z,97599.03
2023-04-27T02:31:41.521Z,97592.19
2023-04-27T02:33:49.738Z,97611.94
2023-04-27T02:35:58.180Z,97602.22
2023-04-27T02:38:06.898Z,97603.06
2023-04-27T02:40:21.558Z,97610.31
2023-04-27T02:42:29.637Z,97614.59
2023-04-27T02:44:37.507Z,97613.50
2023-04-27T02:46:45.388Z,97611.72
2023-04-27T02:48:55.483Z,97616.22
2023-04-27T02:51:07.313Z,97617.28
2023-04-27T02:53:15.941Z,97613.94
2023-04-27T02:55:26.279Z,97617.47
2023-04-27T02:57:34.200Z,97616.19
2023-04-27T02:59:43.519Z,97620.41
2023-04-27T03:01:54.797Z,97618.00
2023-04-27T03:04:02.795Z,97616.19
2023-04-27T03:06:11.046Z,97621.25
2023-04-27T03:08:19.367Z,97617.91
2023-04-27T03:10:30.241Z,97620.41
2023-04-27T03:12:38.679Z,97613.13
2023-04-27T03:14:46.569Z,97621.44
2023-04-27T03:16:56.384Z,97622.63
2023-04-27T03:19:04.561Z,97616.50
2023-04-27T03:21:14.447Z,97611.19
2023-04-27T03:23:22.677Z,97618.44
2023-04-27T03:25:36.155Z,97617.44
2023-04-27T03:27:44.022Z,97609.81
2023-04-27T03:29:54.756Z,97613.56
2023-04-27T03:32:02.802Z,97620.69
2023-04-27T03:34:10.792Z,97623.19
2023-04-27T03:36:20.464Z,97617.81
2023-04-27T03:38:29.267Z,97614.31
2023-04-27T03:40:40.079Z,97615.88
2023-04-27T03:42:48.132Z,97614.72
2023-04-27T03:44:56.730Z,97606.81
2023-04-27T03:47:09.337Z,97605.41
2023-04-27T03:49:19.494Z,97611.09
2023-04-27T03:51:27.495Z,97613.97
2023-04-27T03:53:35.591Z,97617.00
2023-04-27T03:55:47.979Z,97620.47
2023-04-27T03:57:56.927Z,97620.03
2023-04-27T04:00:05.379Z,97631.75
2023-04-27T04:02:22.351Z,97625.16
2023-04-27T04:04:30.614Z,97629.06
2023-04-27T04:06:38.669Z,97626.72
2023-04-27T04:08:47.198Z,97626.00
2023-04-27T04:10:57.832Z,97626.72
2023-04-27T04:13:05.807Z,97625.84
2023-04-27T04:15:14.279Z,97629.50
2023-04-27T04:17:22.346Z,97627.03
2023-04-27T04:19:30.291Z,97633.00
2023-04-27T04:21:38.493Z,97625.38
2023-04-27T04:23:48.880Z,97620.78
2023-04-27T04:26:00.274Z,97625.25
2023-04-27T04:28:12.926Z,97624.53
2023-04-27T04:30:21.104Z,97627.09
2023-04-27T04:32:31.452Z,97636.09
2023-04-27T04:34:39.579Z,97636.72
2023-04-27T04:36:47.663Z,97644.66
2023-04-27T04:38:57.391Z,97635.31
2023-04-27T04:41:10.427Z,97640.75
2023-04-27T04:43:19.058Z,97634.13
2023-04-27T04:45:29.053Z,97637.09
2023-04-27T04:47:39.850Z,97639.91
2023-04-27T04:49:47.923Z,97640.84
2023-04-27T04:51:55.961Z,97644.56
2023-04-27T04:54:03.949Z,97642.72
2023-04-27T04:56:17.145Z,97645.88
2023-04-27T04:58:25.100Z,97638.72
2023-04-27T05:00:33.349Z,97635.75
2023-04-27T05:02:43.889Z,97643.38
2023-04-27T05:04:52.453Z,97639.94
2023-04-27T05:07:00.687Z,97648.63
2023-04-27T05:09:09.244Z,97644.38
2023-04-27T05:11:19.766Z,97648.41
2023-04-27T05:13:30.047Z,97650.81
2023-04-27T05:15:43.172Z,97647.50
2023-04-27T05:17:51.189Z,97652.94
2023-04-27T05:19:59.299Z,97652.00
2023-04-27T05:22:07.185Z,97652.78
2023-04-27T05:24:15.888Z,97653.38
2023-04-27T05:26:26.457Z,97650.91
2023-04-27T05:28:34.745Z,97658.19
2023-04-27T05:30:42.908Z,97652.91
2023-04-27T05:32:51.047Z,97658.78
2023-04-27T05:34:59.249Z,97662.03
2023-04-27T05:37:07.494Z,97668.00
2023-04-27T05:39:16.057Z,97666.75
2023-04-27T05:41:26.859Z,97663.50
2023-04-27T05:43:38.915Z,97665.19
2023-04-27T05:45:47.035Z,97674.00
2023-04-27T05:47:56.208Z,97670.66
2023-04-27T05:50:04.139Z,97675.34
2023-04-27T05:52:12.147Z,97668.53
2023-04-27T05:54:19.998Z,97672.63
2023-04-27T05:56:30.727Z,97676.69
2023-04-27T05:58:38.927Z,97680.44
2023-04-27T06:00:47.346Z,97678.97
2023-04-27T06:02:55.447Z,97685.81
2023-04-27T06:05:04.799Z,97691.66
2023-04-27T06:07:13.568Z,97691.78
2023-04-27T06:09:21.926Z,97697.44
2023-04-27T06:11:32.494Z,97692.88
2023-04-27T06:13:40.429Z,97691.81
2023-04-27T06:15:48.450Z,97692.09
2023-04-27T06:17:56.564Z,97690.81
2023-04-27T06:20:07.102Z,97697.34
2023-04-27T06:22:15.043Z,97694.22
2023-04-27T06:24:23.467Z,97703.78
2023-04-27T06:26:34.549Z,97692.78
2023-04-27T06:28:42.538Z,97696.81
2023-04-27T06:30:51.182Z,97697.16
2023-04-27T06:32:59.170Z,97705.88
2023-04-27T06:35:07.951Z,97706.81
2023-04-27T06:37:17.298Z,97709.19
2023-04-27T06:39:25.272Z,97716.00
2023-04-27T06:41:36.037Z,97719.16
2023-04-27T06:43:44.072Z,97714.06
2023-04-27T06:45:52.061Z,97721.63
2023-04-27T06:48:00.040Z,97725.97
2023-04-27T06:50:08.836Z,97734.59
2023-04-27T06:52:17.099Z,97721.00
2023-04-27T06:54:25.302Z,97739.47
2023-04-27T06:56:36.127Z,97745.81
2023-04-27T06:58:44.212Z,97759.72
2023-04-27T07:00:52.157Z,97772.66
2023-04-27T07:03:00.117Z,97780.31
2023-04-27T07:05:09.046Z,97784.75
2023-04-27T07:07:16.974Z,97792.47
2023-04-27T07:09:27.815Z,97796.19
2023-04-27T07:11:38.814Z,97794.81
2023-04-27T07:13:50.227Z,97784.22
2023-04-27T07:16:00.727Z,97795.81
2023-04-27T07:18:17.464Z,97805.47
2023-04-27T07:20:30.827Z,97824.00
2023-04-27T07:22:39.415Z,97833.84
2023-04-27T07:24:47.237Z,97843.03
2023-04-27T07:26:58.306Z,97830.84
2023-04-27T07:29:18.840Z,97823.72
2023-04-27T07:31:32.013Z,97813.03
2023-04-27T07:33:39.874Z,97820.16
2023-04-27T07:35:47.816Z,97830.59
2023-04-27T07:37:56.872Z,97842.66
2023-04-27T07:40:11.231Z,97849.25
2023-04-27T07:42:22.636Z,97853.25
2023-04-27T07:44:30.774Z,97859.38
2023-04-27T07:46:38.884Z,97849.41
2023-04-27T07:48:50.469Z,97832.50
2023-04-27T07:50:58.570Z,97838.72
2023-04-27T07:53:06.584Z,97830.63
2023-04-27T07:55:15.416Z,97834.84
2023-04-27T07:57:26.090Z,97838.47
2023-04-27T07:59:33.983Z,97831.94
2023-04-27T08:01:42.304Z,97812.75
2023-04-27T08:03:50.429Z,97808.47
2023-04-27T08:05:58.983Z,97795.69
2023-04-27T08:08:07.901Z,97792.78
2023-04-27T08:10:16.597Z,97801.09
2023-04-27T08:12:27.125Z,97794.81
2023-04-27T08:14:37.357Z,97791.41
2023-04-27T08:16:46.079Z,97790.91
2023-04-27T08:18:54.099Z,97787.56
2023-04-27T08:21:01.977Z,97796.00
2023-04-27T08:23:09.944Z,97776.41
2023-04-27T08:25:17.923Z,97770.09
2023-04-27T08:27:28.739Z,97759.06
2023-04-27T08:29:37.180Z,97769.63
2023-04-27T08:31:45.188Z,97769.25
2023-04-27T08:33:53.500Z,97763.59
2023-04-27T08:36:02.493Z,97745.88
2023-04-27T08:38:10.868Z,97751.28
2023-04-27T08:40:20.060Z,97753.06
2023-04-27T08:42:30.980Z,97754.34
2023-04-27T08:44:41.893Z,97753.56
2023-04-27T08:46:51.194Z,97759.63
2023-04-27T08:48:59.691Z,97757.50
2023-04-27T08:51:13.826Z,97745.44
2023-04-27T08:53:22.429Z,97744.06
2023-04-27T08:55:31.653Z,97738.88
2023-04-27T08:57:42.257Z,97742.13
2023-04-27T09:00:01.254Z,97741.84
2023-04-27T09:02:09.720Z,97745.84
2023-04-27T09:04:18.838Z,97749.59
2023-04-27T09:06:33.307Z,97741.63
2023-04-27T09:08:45.836Z,97753.13
2023-04-27T09:10:55.016Z,97759.72
2023-04-27T09:13:05.675Z,97742.81
2023-04-27T09:15:14.196Z,97758.31
2023-04-27T09:17:28.440Z,97779.38
2023-04-27T09:19:36.373Z,97763.06
2023-04-27T09:21:47.730Z,97772.28
2023-04-27T09:23:56.186Z,97787.88
2023-04-27T09:26:08.288Z,97801.06
2023-04-27T09:28:19.162Z,97791.25
2023-04-27T09:30:27.285Z,97799.09
2023-04-27T09:32:35.467Z,97815.09
2023-04-27T09:34:43.895Z,97808.22
2023-04-27T09:36:52.478Z,97798.19
2023-04-27T09:39:02.216Z,97787.78
2023-04-27T09:41:11.334Z,97783.06
2023-04-27T09:43:22.198Z,97783.22
2023-04-27T09:45:30.928Z,97792.56
2023-04-27T09:47:39.837Z,97745.13
2023-04-27T09:49:47.840Z,97738.84
2023-04-27T09:51:57.116Z,97738.22
2023-04-27T09:54:06.975Z,97739.94
2023-04-27T09:56:29.069Z,97738.75
2023-04-27T09:59:02.720Z,97738.91
2023-04-27T10:01:22.069Z,97733.47
2023-04-27T10:03:36.258Z,97722.03
2023-04-27T10:06:10.900Z,97719.75
2023-04-27T10:08:19.193Z,97733.25
2023-04-27T10:10:27.389Z,97717.03
2023-04-27T10:12:38.633Z,97723.47
2023-04-27T10:14:57.273Z,97728.25
2023-04-27T10:17:14.104Z,97724.25
2023-04-27T10:19:22.835Z,97727.09
2023-04-27T10:21:30.887Z,97723.75
2023-04-27T10:23:50.758Z,97727.91
2023-04-27T10:25:58.922Z,97724.88
2023-04-27T10:28:08.505Z,97718.59
2023-04-27T10:30:22.195Z,97703.94
2023-04-27T10:32:33.511Z,97714.22
2023-04-27T10:34:42.787Z,97711.38
2023-04-27T10:36:50.805Z,97720.69
2023-04-27T10:38:59.914Z,97711.03
2023-04-27T10:41:08.128Z,97718.06
2023-04-27T10:43:17.741Z,97717.59
2023-04-27T10:45:37.355Z,97697.78
2023-04-27T10:47:47.277Z,97708.94
2023-04-27T10:49:57.903Z,97701.53
2023-04-27T10:52:06.512Z,97700.19
2023-04-27T10:54:15.147Z,97688.19
2023-04-27T10:56:25.080Z,97702.56
2023-04-27T10:58:45.250Z,97691.84
2023-04-27T11:00:59.150Z,97685.78
2023-04-27T11:03:21.271Z,97692.94
2023-04-27T11:05:33.953Z,97686.41
2023-04-27T11:07:45.696Z,97682.22
2023-04-27T11:09:53.709Z,97694.16
2023-04-27T11:12:02.050Z,97681.06
2023-04-27T11:14:11.784Z,97685.66
2023-04-27T11:16:22.417Z,97669.97
2023-04-27T11:18:36.496Z,97672.09
2023-04-27T11:20:44.574Z,97679.56
2023-04-27T11:22:52.889Z,97681.16
2023-04-27T11:25:00.905Z,97688.88
2023-04-27T11:27:08.893Z,97678.13
2023-04-27T11:29:17.215Z,97676.31
2023-04-27T11:31:28.633Z,97675.72
2023-04-27T11:33:37.022Z,97668.09
2023-04-27T11:35:45.453Z,97673.78
2023-04-27T11:38:02.273Z,97663.94
2023-04-27T11:40:12.365Z,97667.09
2023-04-27T11:42:22.376Z,97667.81
2023-04-27T11:44:30.451Z,97664.09
2023-04-27T11:46:42.643Z,97673.63
2023-04-27T11:48:50.923Z,97677.72
2023-04-27T11:51:02.125Z,97681.38
2023-04-27T11:53:10.305Z,97667.81
2023-04-27T11:55:18.848Z,97671.81
2023-04-27T11:57:29.173Z,97674.34
2023-04-27T11:59:37.159Z,97670.97
2023-04-27T12:01:47.979Z,97673.31
2023-04-27T12:03:56.944Z,97674.91
2023-04-27T12:06:21.363Z,97679.22
2023-04-27T12:08:33.849Z,97674.72
2023-04-27T12:10:42.060Z,97677.97
2023-04-27T12:12:49.967Z,97660.16
2023-04-27T12:14:58.912Z,97662.81
2023-04-27T12:17:09.549Z,97662.25
2023-04-27T12:19:17.679Z,97661.44
2023-04-27T12:21:25.940Z,97663.72
2023-04-27T12:23:34.238Z,97660.75
2023-04-27T12:25:44.329Z,97655.22
2023-04-27T12:27:53.716Z,97646.13
2023-04-27T12:30:02.004Z,97654.44
2023-04-27T12:32:12.484Z,97644.88
2023-04-27T12:34:20.969Z,97649.16
2023-04-27T12:36:29.750Z,97648.06
2023-04-27T12:38:37.843Z,97646.31
2023-04-27T12:40:46.257Z,97636.63
2023-04-27T12:42:54.090Z,97644.97
2023-04-27T12:45:02.540Z,97652.31
2023-04-27T12:47:20.013Z,97648.13
2023-04-27T12:49:36.638Z,97639.25
2023-04-27T12:51:45.772Z,97641.31
2023-04-27T12:53:53.623Z,97643.53
2023-04-27T12:56:04.799Z,97640.91
2023-04-27T12:58:12.833Z,97636.78
2023-04-27T13:00:21.620Z,97630.56
2023-04-27T13:02:33.307Z,97633.38
2023-04-27T13:04:43.807Z,97637.88
2023-04-27T13:06:51.722Z,97632.56
2023-04-27T13:08:59.852Z,97627.50
2023-04-27T13:11:08.000Z,97625.72
2023-04-27T13:13:15.935Z,97627.91
2023-04-27T13:15:24.172Z,97625.22
2023-04-27T13:17:34.858Z,97624.69
2023-04-27T13:19:43.020Z,97626.66
2023-04-27T13:21:51.270Z,97625.78
2023-04-27T13:24:01.575Z,97622.13
2023-04-27T13:26:10.120Z,97622.88
2023-04-27T13:28:18.133Z,97619.31
2023-04-27T13:30:26.107Z,97616.00
2023-04-27T13:32:36.831Z,97617.81
2023-04-27T13:34:44.764Z,97624.31
2023-04-27T13:36:52.811Z,97616.75
2023-04-27T13:39:00.778Z,97621.56
2023-04-27T13:41:09.392Z,97614.75
2023-04-27T13:43:17.319Z,97610.78
2023-04-27T13:45:25.430Z,97616.44
2023-04-27T13:47:37.173Z,97608.44
2023-04-27T13:49:45.705Z,97604.22
2023-04-27T13:51:53.945Z,97599.94
2023-04-27T13:54:01.855Z,97598.22
2023-04-27T13:56:10.380Z,97599.25
2023-04-27T13:58:18.393Z,97601.75
2023-04-27T14:00:28.973Z,97593.47
2023-04-27T14:02:40.151Z,97592.47
2023-04-27T14:04:48.272Z,97593.06
2023-04-27T14:06:56.431Z,97595.44
2023-04-27T14:09:04.381Z,97591.25
2023-04-27T14:11:15.267Z,97598.91
2023-04-27T14:13:23.199Z,97592.38
2023-04-27T14:15:31.318Z,97601.06
2023-04-27T14:17:41.981Z,97593.19
2023-04-27T14:19:50.012Z,97592.41
2023-04-27T14:22:01.213Z,97603.91
2023-04-27T14:24:09.587Z,97592.97
2023-04-27T14:26:17.607Z,97595.75
2023-04-27T14:28:25.560Z,97591.72
2023-04-27T14:30:35.040Z,97593.50
2023-04-27T14:32:46.122Z,97591.16
2023-04-27T14:34:54.507Z,97585.56
2023-04-27T14:37:02.594Z,97578.84
2023-04-27T14:39:10.984Z,97581.59
2023-04-27T14:41:19.263Z,97582.97
2023-04-27T14:43:27.307Z,97582.59
2023-04-27T14:45:47.807Z,97589.28
2023-04-27T14:48:02.312Z,97587.34
2023-04-27T14:50:11.888Z,97598.84
2023-04-27T14:52:19.752Z,97597.00
2023-04-27T14:54:28.035Z,97588.16
2023-04-27T14:56:36.122Z,97587.97
2023-04-27T14:58:44.289Z,97586.56
2023-04-27T15:00:53.331Z,97594.00
2023-04-27T15:03:04.166Z,97589.41
2023-04-27T15:05:12.893Z,97597.06
2023-04-27T15:07:21.671Z,97588.88
2023-04-27T15:09:30.370Z,97599.53
2023-04-27T15:11:39.132Z,97595.91
2023-04-27T15:13:49.186Z,97594.38
2023-04-27T15:15:58.280Z,97596.03
2023-04-27T15:18:09.352Z,97586.94
2023-04-27T15:20:17.546Z,97585.09
2023-04-27T15:22:29.024Z,97588.16
2023-04-27T15:24:37.168Z,97583.50
2023-04-27T15:26:45.034Z,97591.63
2023-04-27T15:28:53.038Z,97587.38
2023-04-27T15:31:01.340Z,97578.97
2023-04-27T15:33:12.091Z,97584.53
2023-04-27T15:35:20.197Z,97579.13
2023-04-27T15:37:28.744Z,97579.13
2023-04-27T15:39:36.720Z,97575.00
2023-04-27T15:41:44.861Z,97581.44
2023-04-27T15:43:54.323Z,97578.53
2023-04-27T15:46:02.877Z,97568.63
2023-04-27T15:48:14.530Z,97566.66
2023-04-27T15:50:22.759Z,97563.75
2023-04-27T15:52:30.733Z,97563.97
2023-04-27T15:54:38.710Z,97561.31
2023-04-27T15:56:48.034Z,97560.59
2023-04-27T15:58:56.042Z,97562.03
2023-04-27T16:01:04.150Z,97555.41
2023-04-27T16:03:15.045Z,97556.00
2023-04-27T16:05:23.445Z,97553.34
2023-04-27T16:07:32.705Z,97539.66
2023-04-27T16:09:41.211Z,97537.88
2023-04-27T16:11:49.328Z,97537.22
2023-04-27T16:13:57.219Z,97533.91
2023-04-27T16:16:05.261Z,97528.47
2023-04-27T16:18:16.366Z,97530.50
2023-04-27T16:20:25.671Z,97529.06
2023-04-27T16:22:34.149Z,97522.94
2023-04-27T16:24:42.270Z,97531.94
2023-04-27T16:26:50.810Z,97525.00
2023-04-27T16:28:59.604Z,97524.63
2023-04-27T16:31:07.646Z,97525.56
2023-04-27T16:33:18.698Z,97516.66
2023-04-27T16:35:29.395Z,97518.47
2023-04-27T16:37:37.459Z,97514.28
2023-04-27T16:39:45.566Z,97509.63
2023-04-27T16:41:53.888Z,97515.03
2023-04-27T16:44:02.470Z,97517.00
2023-04-27T16:46:14.962Z,97517.03
2023-04-27T16:48:25.831Z,97519.00
2023-04-27T16:50:36.140Z,97519.84
2023-04-27T16:52:44.831Z,97518.44
2023-04-27T16:54:52.847Z,97521.53
2023-04-27T16:57:00.883Z,97509.69
2023-04-27T16:59:12.648Z,97516.44
2023-04-27T17:01:21.156Z,97514.59
2023-04-27T17:03:32.058Z,97510.13
2023-04-27T17:05:40.110Z,97511.50
2023-04-27T17:07:50.182Z,97514.34
2023-04-27T17:09:58.249Z,97519.00
2023-04-27T17:12:11.352Z,97511.75
2023-04-27T17:14:19.974Z,97511.22
2023-04-27T17:16:28.165Z,97513.59
2023-04-27T17:18:39.326Z,97514.72
2023-04-27T17:20:47.484Z,97512.88
2023-04-27T17:22:55.382Z,97512.03
2023-04-27T17:25:03.376Z,97515.16
2023-04-27T17:27:11.524Z,97517.25
2023-04-27T17:29:19.517Z,97519.91
2023-04-27T17:31:27.421Z,97514.81
2023-04-27T17:33:35.404Z,97514.53
2023-04-27T17:35:47.439Z,97519.56
2023-04-27T17:37:58.205Z,97517.84
2023-04-27T17:40:09.328Z,97511.31
2023-04-27T17:42:17.452Z,97517.31
2023-04-27T17:44:25.299Z,97522.88
2023-04-27T17:46:33.401Z,97513.78
2023-04-27T17:48:42.471Z,97514.56
2023-04-27T17:50:53.310Z,97513.88
2023-04-27T17:53:01.616Z,97509.16
2023-04-27T17:55:10.345Z,97505.88
2023-04-27T17:57:20.902Z,97497.84
2023-04-27T17:59:29.200Z,97500.22
2023-04-27T18:01:37.168Z,97503.59
2023-04-27T18:03:45.222Z,97503.16
2023-04-27T18:05:55.817Z,97506.50
2023-04-27T18:08:03.949Z,97504.88
2023-04-27T18:10:16.647Z,97498.22
2023-04-27T18:12:24.520Z,97495.19
2023-04-27T18:14:32.544Z,97493.16
2023-04-27T18:16:40.492Z,97497.06
2023-04-27T18:18:48.620Z,97503.31
2023-04-27T18:20:59.356Z,97508.56
2023-04-27T18:23:07.294Z,97511.03
2023-04-27T18:25:16.673Z,97514.19
2023-04-27T18:27:24.640Z,97521.28
2023-04-27T18:29:32.744Z,97515.44
2023-04-27T18:31:40.799Z,97513.38
2023-04-27T18:33:49.478Z,97518.00
2023-04-27T18:35:59.971Z,97515.94
2023-04-27T18:38:08.484Z,97508.91
2023-04-27T18:40:17.478Z,97511.09
2023-04-27T18:42:26.529Z,97507.22
2023-04-27T18:44:34.506Z,97514.16
2023-04-27T18:46:42.413Z,97513.41
2023-04-27T18:48:50.301Z,97509.28
2023-04-27T18:51:01.055Z,97507.47
2023-04-27T18:53:09.173Z,97504.06
2023-04-27T18:55:18.391Z,97513.53
2023-04-27T18:57:26.742Z,97515.59
2023-04-27T18:59:34.875Z,97507.72
2023-04-27T19:01:43.062Z,97508.44
2023-04-27T19:03:51.528Z,97514.78
2023-04-27T19:06:02.510Z,97510.28
2023-04-27T19:08:10.531Z,97514.25
2023-04-27T19:10:18.731Z,97518.03
2023-04-27T19:12:30.389Z,97513.81
2023-04-27T19:14:38.626Z,97521.44
2023-04-27T19:16:46.758Z,97523.97
2023-04-27T19:18:54.803Z,97523.38
2023-04-27T19:21:08.374Z,97526.19
2023-04-27T19:23:19.365Z,97531.97
2023-04-27T19:25:27.811Z,97525.53
2023-04-27T19:27:35.873Z,97529.06
2023-04-27T19:29:54.624Z,97522.47
2023-04-27T19:32:03.253Z,97526.47
2023-04-27T19:34:11.177Z,97532.88
2023-04-27T19:36:21.699Z,97531.03
2023-04-27T19:38:30.634Z,97523.06
2023-04-27T19:40:38.858Z,97521.84
2023-04-27T19:42:47.019Z,97524.72
2023-04-27T19:44:58.502Z,97522.28
2023-04-27T19:47:07.048Z,97513.59
2023-04-27T19:49:15.998Z,97508.56
2023-04-27T19:51:26.930Z,97509.19
2023-04-27T19:53:35.257Z,97512.25
2023-04-27T19:55:43.644Z,97505.38
2023-04-27T19:57:52.470Z,97509.69
2023-04-27T20:00:00.466Z,97504.22
2023-04-27T20:02:08.595Z,97509.00
2023-04-27T20:04:19.271Z,97512.16
2023-04-27T20:06:30.416Z,97509.41
2023-04-27T20:08:38.526Z,97503.41
2023-04-27T20:10:46.523Z,97497.59
2023-04-27T20:12:57.160Z,97506.94
2023-04-27T20:15:05.478Z,97503.53
2023-04-27T20:17:26.389Z,97498.41
2023-04-27T20:19:35.437Z,97501.34
2023-04-27T20:21:46.823Z,97497.47
2023-04-27T20:23:55.224Z,97498.69
2023-04-27T20:26:03.461Z,97494.66
2023-04-27T20:28:14.484Z,97505.38
2023-04-27T20:30:22.977Z,97497.50
2023-04-27T20:32:30.936Z,97501.81
2023-04-27T20:34:39.121Z,97496.75
2023-04-27T20:37:07.004Z,97486.75
2023-04-27T20:39:16.217Z,97496.50
2023-04-27T20:41:25.080Z,97486.34
2023-04-27T20:43:39.352Z,97487.88
2023-04-27T20:45:49.608Z,97486.25
2023-04-27T20:47:57.718Z,97481.47
2023-04-27T20:50:05.836Z,97478.88
2023-04-27T20:52:16.449Z,97481.13
2023-04-27T20:54:26.799Z,97479.31
2023-04-27T20:56:35.069Z,97481.03
2023-04-27T20:58:42.975Z,97479.59
2023-04-27T21:00:51.576Z,97471.59
2023-04-27T21:03:03.910Z,97480.88
2023-04-27T21:05:12.713Z,97470.31
2023-04-27T21:07:25.545Z,97467.75
2023-04-27T21:09:35.123Z,97463.16
2023-04-27T21:11:43.101Z,97459.50
2023-04-27T21:13:51.072Z,97452.69
2023-04-27T21:15:59.034Z,97451.22
2023-04-27T21:18:13.435Z,97450.88
2023-04-27T21:20:24.156Z,97450.38
2023-04-27T21:22:34.842Z,97447.09
2023-04-27T21:24:42.751Z,97456.50
2023-04-27T21:26:50.647Z,97448.03
2023-04-27T21:28:59.017Z,97453.22
2023-04-27T21:31:07.065Z,97450.19
2023-04-27T21:33:15.286Z,97454.03
2023-04-27T21:35:23.307Z,97455.13
2023-04-27T21:37:31.442Z,97446.56
2023-04-27T21:39:41.886Z,97448.38
2023-04-27T21:41:49.980Z,97441.13
2023-04-27T21:43:58.102Z,97440.72
2023-04-27T21:46:06.034Z,97440.03
2023-04-27T21:48:13.927Z,97435.56
2023-04-27T21:50:22.005Z,97434.50
2023-04-27T21:52:30.039Z,97422.47
2023-04-27T21:54:37.848Z,97428.66
2023-04-27T21:56:48.513Z,97429.88
2023-04-27T21:59:06.357Z,97425.25
2023-04-27T22:01:15.283Z,97423.41
2023-04-27T22:03:24.197Z,97418.00
2023-04-27T22:05:33.624Z,97409.16
2023-04-27T22:07:41.621Z,97417.38
2023-04-27T22:09:49.845Z,97421.81
2023-04-27T22:12:00.409Z,97414.16
2023-04-27T22:14:08.634Z,97418.81
2023-04-27T22:16:16.901Z,97416.94
2023-04-27T22:18:24.856Z,97417.41
2023-04-27T22:20:33.145Z,97414.44
2023-04-27T22:22:41.223Z,97406.16
2023-04-27T22:24:49.183Z,97410.09
2023-04-27T22:26:57.134Z,97411.84
2023-04-27T22:29:07.586Z,97426.75
2023-04-27T22:31:15.458Z,97419.59
2023-04-27T22:33:23.477Z,97409.63
2023-04-27T22:35:31.890Z,97412.97
2023-04-27T22:37:39.973Z,97409.81
2023-04-27T22:39:48.078Z,97411.63
2023-04-27T22:41:56.045Z,97415.97
2023-04-27T22:44:04.161Z,97418.00
2023-04-27T22:46:14.630Z,97409.63
2023-04-27T22:48:22.564Z,97412.47
2023-04-27T22:50:31.718Z,97417.16
2023-04-27T22:52:42.466Z,97409.97
2023-04-27T22:54:50.589Z,97409.34
2023-04-27T22:56:59.403Z,97411.38
2023-04-27T22:59:07.277Z,97413.50
2023-04-27T23:01:17.856Z,97409.69
2023-04-27T23:03:26.201Z,97418.31
2023-04-27T23:05:34.150Z,97414.41
2023-04-27T23:07:43.031Z,97411.34
2023-04-27T23:09:51.000Z,97413.50
2023-04-27T23:11:59.237Z,97417.94
2023-04-27T23:14:07.752Z,97420.19
2023-04-27T23:16:18.557Z,97419.53
2023-04-27T23:18:26.444Z,97420.38
2023-04-27T23:20:34.486Z,97422.41
2023-04-27T23:22:44.089Z,97414.75
2023-04-27T23:24:52.009Z,97422.00
2023-04-27T23:27:00.477Z,97415.25
2023-04-27T23:29:11.217Z,97415.91
2023-04-27T23:31:21.686Z,97402.69
2023-04-27T23:33:29.560Z,97403.53
2023-04-27T23:35:37.519Z,97388.03
2023-04-27T23:37:45.492Z,97394.16
2023-04-27T23:39:53.541Z,97394.78
2023-04-27T23:42:02.086Z,97402.34
2023-04-27T23:44:09.952Z,97392.03
2023-04-27T23:46:17.999Z,97394.34
2023-04-27T23:48:28.620Z,97391.78
2023-04-27T23:50:36.650Z,97388.38
2023-04-27T23:52:45.360Z,97379.38
2023-04-27T23:54:53.286Z,97372.13
2023-04-27T23:57:01.551Z,97369.44
2023-04-27T23:59:10.924Z,97372.69
